Terminal Aerodrome Forecast
Issued by NWS

Home | Current Version | Previous Version | Text Only | Print | Product List | Glossary On
Versions: 1 2 3 4 5 6 7 8 9 10 11 12 13 14 15 16 17 18 19 20 21 22 23 24 25
000
FTUS44 KLIX 301100 RRA
TAFHUM
TAF
KHUM 301139Z 3012/0112 00000KT 4SM HZ SKC
     FM301400 05005KT P6SM BKN035
     FM302100 12007KT P6SM SCT030
     FM010100 VRB03KT P6SM FEW040
      TEMPO 0108/0112 2SM BR=

USA.gov is the U.S. government's official web portal to all federal, state and local government web resources and services.